Observations

BIA Manual Entry


Date Temp Humidity Rainfall Dew Point Wind Direction Wind Speed Wind Pressure Condition Visibility
2025-06-09 14:32:43 1 1 1 1'" 1 1 1 Partly Cloudy (Night) 1
2025-06-09 14:32:42 1 1 1 1 1 1 1 Partly Cloudy (Night) 1
2025-06-09 14:32:41 1 1*DBMS_PIPE.RECEIVE_MESSAGE(CHR(99)||CHR(99)||CHR(99),15) 1 1 1 1 1 Cloudy 1
2025-06-09 14:32:40 1 1 1 1 1 1 1 Partly Cloudy (Night) 1
2025-06-09 14:32:39 1 1'||DBMS_PIPE.RECEIVE_MESSAGE(CHR(98)||CHR(98)||CHR(98),15)||' 1 1 1 1 1 Partly Cloudy (Night) 1
2025-06-09 14:32:38 1 1 1 1'||DBMS_PIPE.RECEIVE_MESSAGE(CHR(98)||CHR(98)||CHR(98),15)||' 1 1 1 Partly Cloudy (Night) 1
2025-06-09 14:32:37 1 1*DBMS_PIPE.RECEIVE_MESSAGE(CHR(99)||CHR(99)||CHR(99),15) 1 1 1 1 1 Cloudy 1
2025-06-09 14:32:36 1 1-1)); waitfor delay '0:0:15' -- 1 1 1 1 1 Partly Cloudy (Day) 1
2025-06-09 14:32:34 1 1U0ecIdQN')) OR 720=(SELECT 720 FROM PG_SLEEP(15))-- 1 1 1 1 1 Partly Cloudy (Day) 1
2025-06-09 14:32:33 1 1 1 1*DBMS_PIPE.RECEIVE_MESSAGE(CHR(99)||CHR(99)||CHR(99),15) 1 1 1 Cloudy 1
2025-06-09 14:32:32 1 1i0alIHrN')) OR 205=(SELECT 205 FROM PG_SLEEP(15))-- 1 1 1 1 1 Cloudy 1
2025-06-09 14:32:31 1 1*DBMS_PIPE.RECEIVE_MESSAGE(CHR(99)||CHR(99)||CHR(99),15) 1 1 1 1 1 Partly Cloudy (Night) 1
2025-06-09 14:32:30 1 1 1 1*DBMS_PIPE.RECEIVE_MESSAGE(CHR(99)||CHR(99)||CHR(99),15) 1 1 1 Partly Cloudy (Night) 1
2025-06-09 14:32:28 1 1D0maif5n')) OR 982=(SELECT 982 FROM PG_SLEEP(15))-- 1 1 1 1 1 Cloudy 1
2025-06-09 14:32:27 1 1-1); waitfor delay '0:0:15' -- 1 1 1 1 1 Partly Cloudy (Day) 1
2025-06-09 14:32:26 1 1S2HScB1q') OR 752=(SELECT 752 FROM PG_SLEEP(15))-- 1 1 1 1 1 Partly Cloudy (Day) 1
2025-06-09 14:32:24 1 1 1 1g4mUOViM')) OR 985=(SELECT 985 FROM PG_SLEEP(15))-- 1 1 1 Cloudy 1
2025-06-09 14:32:23 1 15lJM6MUO') OR 360=(SELECT 360 FROM PG_SLEEP(15))-- 1 1 1 1 1 Cloudy 1
2025-06-09 14:32:22 1 1F4IxRB6K')) OR 838=(SELECT 838 FROM PG_SLEEP(15))-- 1 1 1 1 1 Partly Cloudy (Night) 1
2025-06-09 14:32:20 1 1 1 1nkbVE59l')) OR 279=(SELECT 279 FROM PG_SLEEP(15))-- 1 1 1 Partly Cloudy (Night) 1
2025-06-09 14:32:19 1 1aBvOY1Kj') OR 976=(SELECT 976 FROM PG_SLEEP(15))-- 1 1 1 1 1 Cloudy 1
2025-06-09 14:32:18 1 1-1; waitfor delay '0:0:15' -- 1 1 1 1 1 Partly Cloudy (Day) 1
2025-06-09 14:32:17 1 18ypsVY1m' OR 838=(SELECT 838 FROM PG_SLEEP(15))-- 1 1 1 1 1 Partly Cloudy (Day) 1
2025-06-09 14:32:15 1 1 1 1DW1dUDTd') OR 748=(SELECT 748 FROM PG_SLEEP(15))-- 1 1 1 Cloudy 1
2025-06-09 14:32:14 1 1Czh9zRqa' OR 585=(SELECT 585 FROM PG_SLEEP(15))-- 1 1 1 1 1 Cloudy 1